createdAt,value
2018-09-17T00:00:16.632Z,3.70
2018-09-17T00:02:44.895Z,3.63
2018-09-17T00:05:17.862Z,3.60
2018-09-17T00:07:48.009Z,4.03
2018-09-17T00:10:21.039Z,3.53
2018-09-17T00:12:53.280Z,3.90
2018-09-17T00:15:21.650Z,3.47
2018-09-17T00:17:49.786Z,3.37
2018-09-17T00:20:24.251Z,3.40
2018-09-17T00:22:53.167Z,3.77
2018-09-17T00:25:21.271Z,4.03
2018-09-17T00:27:53.538Z,3.57
2018-09-17T00:30:29.067Z,4.00
2018-09-17T00:33:02.408Z,4.13
2018-09-17T00:35:34.783Z,3.33
2018-09-17T00:38:09.133Z,3.50
2018-09-17T00:40:48.883Z,3.60
2018-09-17T00:43:31.256Z,3.67
2018-09-17T00:46:05.601Z,4.43
2018-09-17T00:48:40.019Z,4.73
2018-09-17T00:51:14.475Z,4.43
2018-09-17T00:53:49.090Z,3.50
2018-09-17T00:56:30.424Z,3.60
2018-09-17T00:59:03.762Z,4.00
2018-09-17T01:01:38.984Z,4.27
2018-09-17T01:04:12.174Z,4.50
2018-09-17T01:06:40.403Z,4.40
2018-09-17T01:09:12.970Z,4.40
2018-09-17T01:11:41.056Z,4.43
2018-09-17T01:14:12.132Z,4.63
2018-09-17T01:16:40.301Z,4.53
2018-09-17T01:19:08.564Z,4.00
2018-09-17T01:21:42.934Z,4.20
2018-09-17T01:24:22.706Z,4.93
2018-09-17T01:26:50.916Z,4.47
2018-09-17T01:29:25.402Z,4.83
2018-09-17T01:32:00.459Z,4.13
2018-09-17T01:34:40.226Z,4.50
2018-09-17T01:37:11.256Z,4.77
2018-09-17T01:39:41.375Z,4.73
2018-09-17T01:42:09.541Z,5.07
2018-09-17T01:44:44.161Z,5.67
2018-09-17T01:47:15.086Z,5.30
2018-09-17T01:49:46.244Z,5.07
2018-09-17T01:52:14.328Z,5.53
2018-09-17T01:54:47.544Z,5.53
2018-09-17T01:57:20.258Z,4.57
2018-09-17T01:59:51.227Z,4.23
2018-09-17T02:02:19.366Z,5.17
2018-09-17T02:04:53.640Z,5.10
2018-09-17T02:07:25.713Z,4.80
2018-09-17T02:09:53.825Z,4.53
2018-09-17T02:12:33.496Z,4.60
2018-09-17T02:15:01.857Z,4.53
2018-09-17T02:17:39.529Z,3.90
2018-09-17T02:20:07.759Z,4.80
2018-09-17T02:22:38.593Z,3.97
2018-09-17T02:25:08.788Z,4.57
2018-09-17T02:27:37.012Z,4.93
2018-09-17T02:30:08.139Z,4.93
2018-09-17T02:32:38.199Z,4.87
2018-09-17T02:35:10.760Z,5.13
2018-09-17T02:37:38.873Z,5.10
2018-09-17T02:40:16.602Z,4.80
2018-09-17T02:42:49.335Z,5.10
2018-09-17T02:45:23.421Z,5.43
2018-09-17T02:47:55.803Z,4.70
2018-09-17T02:50:28.722Z,5.23
2018-09-17T02:53:02.163Z,5.00
2018-09-17T02:55:30.260Z,5.37
2018-09-17T02:58:07.002Z,5.13
2018-09-17T03:00:35.051Z,5.10
2018-09-17T03:03:10.204Z,5.17
2018-09-17T03:05:48.601Z,5.03
2018-09-17T03:08:28.225Z,4.60
2018-09-17T03:11:01.297Z,4.70
2018-09-17T03:13:32.568Z,4.70
2018-09-17T03:16:00.756Z,4.87
2018-09-17T03:18:41.940Z,4.60
2018-09-17T03:21:12.817Z,5.10
2018-09-17T03:23:41.033Z,4.73
2018-09-17T03:26:15.538Z,4.70
2018-09-17T03:28:46.550Z,4.80
2018-09-17T03:31:16.971Z,4.57
2018-09-17T03:33:44.994Z,4.60
2018-09-17T03:36:19.380Z,4.53
2018-09-17T03:38:50.397Z,4.87
2018-09-17T03:41:20.644Z,4.67
2018-09-17T03:43:51.019Z,4.50
2018-09-17T03:46:28.627Z,4.33
2018-09-17T03:48:56.665Z,4.20
2018-09-17T03:51:36.901Z,4.47
2018-09-17T03:54:08.307Z,4.60
2018-09-17T03:56:45.642Z,4.37
2018-09-17T03:59:16.719Z,4.50
2018-09-17T04:01:44.789Z,4.33
2018-09-17T04:04:17.867Z,4.57
2018-09-17T04:06:45.959Z,5.30
2018-09-17T04:09:20.110Z,5.07
2018-09-17T04:11:53.348Z,5.40
2018-09-17T04:14:21.459Z,4.87
2018-09-17T04:16:56.043Z,5.20
2018-09-17T04:19:24.097Z,5.33
2018-09-17T04:21:57.722Z,4.97
2018-09-17T04:24:32.229Z,5.10
2018-09-17T04:27:03.330Z,5.17
2018-09-17T04:29:43.582Z,5.17
2018-09-17T04:32:13.859Z,5.73
2018-09-17T04:34:41.909Z,5.03
2018-09-17T04:37:15.826Z,4.73
2018-09-17T04:39:44.012Z,5.27
2018-09-17T04:42:26.019Z,5.33
2018-09-17T04:44:54.111Z,5.03
2018-09-17T04:47:22.245Z,5.10
2018-09-17T04:49:54.581Z,5.57
2018-09-17T04:52:28.820Z,5.20
2018-09-17T04:55:00.004Z,5.40
2018-09-17T04:57:28.083Z,5.40
2018-09-17T05:00:08.927Z,5.30
2018-09-17T05:02:37.022Z,6.00
2018-09-17T05:05:08.372Z,5.53
2018-09-17T05:07:38.520Z,5.37
2018-09-17T05:10:11.034Z,5.60
2018-09-17T05:12:39.254Z,5.07
2018-09-17T05:15:07.261Z,5.10
2018-09-17T05:17:37.951Z,5.13
2018-09-17T05:20:11.030Z,5.07
2018-09-17T05:22:39.270Z,5.40
2018-09-17T05:25:07.338Z,5.23
2018-09-17T05:27:38.257Z,5.10
2018-09-17T05:30:08.731Z,5.57
2018-09-17T05:32:36.787Z,5.37
2018-09-17T05:35:05.366Z,5.53
2018-09-17T05:37:39.642Z,4.97
2018-09-17T05:40:10.921Z,5.10
2018-09-17T05:42:41.376Z,5.40
2018-09-17T05:45:09.501Z,5.83
2018-09-17T05:47:40.438Z,6.00
2018-09-17T05:50:11.469Z,4.77
2018-09-17T05:52:44.772Z,5.20
2018-09-17T05:55:16.993Z,5.40
2018-09-17T05:57:50.584Z,5.90
2018-09-17T06:00:21.706Z,6.30
2018-09-17T06:02:52.747Z,4.97
2018-09-17T06:05:25.043Z,6.30
2018-09-17T06:07:55.894Z,5.90
2018-09-17T06:10:23.918Z,6.40
2018-09-17T06:13:03.759Z,5.53
2018-09-17T06:15:31.844Z,6.07
2018-09-17T06:18:11.748Z,5.70
2018-09-17T06:20:39.855Z,5.20
2018-09-17T06:23:14.409Z,5.80
2018-09-17T06:25:48.756Z,4.60
2018-09-17T06:28:21.673Z,5.37
2018-09-17T06:30:49.966Z,4.60
2018-09-17T06:33:18.115Z,4.80
2018-09-17T06:35:56.369Z,4.80
2018-09-17T06:38:27.499Z,4.77
2018-09-17T06:40:55.590Z,4.30
2018-09-17T06:43:37.146Z,4.63
2018-09-17T06:46:05.369Z,4.73
2018-09-17T06:48:38.305Z,4.57
2018-09-17T06:51:06.442Z,4.87
2018-09-17T06:53:35.182Z,4.90
2018-09-17T06:56:03.227Z,4.43
2018-09-17T06:58:38.663Z,4.60
2018-09-17T07:01:13.979Z,4.50
2018-09-17T07:03:45.342Z,4.60
2018-09-17T07:06:33.026Z,4.37
2018-09-17T07:09:07.494Z,4.43
2018-09-17T07:11:45.969Z,4.10
2018-09-17T07:14:19.878Z,3.83
2018-09-17T07:16:49.947Z,4.40
2018-09-17T07:19:22.289Z,4.47
2018-09-17T07:21:57.479Z,4.50
2018-09-17T07:24:40.152Z,4.27
2018-09-17T07:27:11.240Z,3.90
2018-09-17T07:29:43.384Z,3.90
2018-09-17T07:32:11.447Z,4.23
2018-09-17T07:34:44.589Z,3.93
2018-09-17T07:37:12.732Z,4.40
2018-09-17T07:39:40.804Z,4.23
2018-09-17T07:42:13.176Z,3.60
2018-09-17T07:44:53.618Z,3.80
2018-09-17T07:47:26.768Z,3.60
2018-09-17T07:49:56.937Z,3.13
2018-09-17T07:52:25.072Z,2.87
2018-09-17T07:54:55.856Z,2.87
2018-09-17T07:57:26.928Z,3.10
2018-09-17T08:00:00.009Z,3.50
2018-09-17T08:02:28.088Z,2.80
2018-09-17T08:05:02.522Z,3.30
2018-09-17T08:07:37.016Z,2.70
2018-09-17T08:10:11.589Z,3.20
2018-09-17T08:12:43.873Z,3.00
2018-09-17T08:15:14.827Z,3.30
2018-09-17T08:17:43.033Z,3.23
2018-09-17T08:20:14.477Z,3.03
2018-09-17T08:22:43.117Z,3.17
2018-09-17T08:25:11.299Z,3.30
2018-09-17T08:27:44.348Z,3.10
2018-09-17T08:30:14.722Z,3.53
2018-09-17T08:32:42.813Z,3.70
2018-09-17T08:35:16.473Z,3.50
2018-09-17T08:37:44.717Z,4.03
2018-09-17T08:40:15.588Z,4.27
2018-09-17T08:42:43.665Z,5.23
2018-09-17T08:45:15.956Z,4.70
2018-09-17T08:47:49.124Z,5.43
2018-09-17T08:50:17.338Z,6.80
2018-09-17T08:52:48.191Z,6.83
2018-09-17T08:55:21.834Z,8.13
2018-09-17T08:57:58.015Z,8.83
2018-09-17T09:00:32.035Z,21.40
2018-09-17T09:03:10.877Z,29.67
2018-09-17T09:05:42.634Z,20.67
2018-09-17T09:08:15.907Z,40.07
2018-09-17T09:10:46.198Z,42.10
2018-09-17T09:13:19.120Z,51.87
2018-09-17T09:15:56.700Z,66.70
2018-09-17T09:18:36.310Z,68.63
2018-09-17T09:21:04.505Z,76.70
2018-09-17T09:23:39.214Z,86.43
2018-09-17T09:26:07.673Z,73.27
2018-09-17T09:28:35.680Z,105.93
2018-09-17T09:31:06.749Z,112.07
2018-09-17T09:33:34.805Z,130.50
2018-09-17T09:36:05.858Z,152.53
2018-09-17T09:38:33.895Z,111.13
2018-09-17T09:41:08.469Z,164.47
2018-09-17T09:43:40.684Z,177.17
2018-09-17T09:46:11.521Z,162.47
2018-09-17T09:48:39.826Z,149.57
2018-09-17T09:51:14.026Z,156.90
2018-09-17T09:53:49.500Z,139.50
2018-09-17T09:56:22.976Z,158.27
2018-09-17T09:58:55.171Z,149.53
2018-09-17T10:01:25.695Z,110.67
2018-09-17T10:04:01.202Z,105.60
2018-09-17T10:06:34.520Z,99.93
2018-09-17T10:09:13.981Z,124.47
2018-09-17T10:11:49.964Z,105.20
2018-09-17T10:14:25.628Z,69.57
2018-09-17T10:16:59.385Z,96.80
2018-09-17T10:19:34.893Z,65.53
2018-09-17T10:22:08.059Z,92.07
2018-09-17T10:24:38.468Z,63.50
2018-09-17T10:27:06.516Z,69.97
2018-09-17T10:29:43.379Z,78.63
2018-09-17T10:32:11.877Z,79.73
2018-09-17T10:34:39.922Z,93.87
2018-09-17T10:37:12.477Z,84.93
2018-09-17T10:39:52.880Z,55.10
2018-09-17T10:42:25.301Z,86.53
2018-09-17T10:45:07.132Z,93.33
2018-09-17T10:47:37.446Z,51.27
2018-09-17T10:50:05.622Z,62.33
2018-09-17T10:52:42.140Z,54.27
2018-09-17T10:55:15.386Z,51.10
2018-09-17T10:57:46.494Z,47.57
2018-09-17T11:00:14.805Z,48.83
2018-09-17T11:02:42.881Z,37.07
2018-09-17T11:05:13.851Z,38.20
2018-09-17T11:07:42.908Z,51.33
2018-09-17T11:10:13.864Z,27.33
2018-09-17T11:12:42.082Z,34.53
2018-09-17T11:15:10.322Z,31.13
2018-09-17T11:17:44.982Z,37.33
2018-09-17T11:20:15.133Z,35.33
2018-09-17T11:22:47.338Z,31.37
2018-09-17T11:25:18.407Z,66.17
2018-09-17T11:27:46.521Z,32.70
2018-09-17T11:30:17.788Z,32.57
2018-09-17T11:32:52.782Z,57.03
2018-09-17T11:35:26.590Z,36.37
2018-09-17T11:37:54.785Z,29.60
2018-09-17T11:40:22.860Z,46.50
2018-09-17T11:42:55.916Z,30.10
2018-09-17T11:45:24.005Z,26.90
2018-09-17T11:48:04.074Z,31.80
2018-09-17T11:50:34.194Z,26.53
2018-09-17T11:53:02.259Z,25.03
2018-09-17T11:55:33.112Z,16.40
2018-09-17T11:58:01.212Z,19.77
2018-09-17T12:00:44.398Z,16.07
2018-09-17T12:03:25.365Z,13.70
2018-09-17T12:05:58.381Z,23.53
2018-09-17T12:08:38.101Z,19.57
2018-09-17T12:11:06.275Z,13.43
2018-09-17T12:13:38.794Z,27.30
2018-09-17T12:16:13.352Z,16.63
2018-09-17T12:18:44.375Z,18.83
2018-09-17T12:21:14.425Z,25.43
2018-09-17T12:23:52.330Z,19.17
2018-09-17T12:26:22.781Z,16.70
2018-09-17T12:28:51.177Z,19.97
2018-09-17T12:31:19.182Z,12.13
2018-09-17T12:33:50.303Z,18.13
2018-09-17T12:36:18.601Z,16.40
2018-09-17T12:38:46.895Z,16.83
2018-09-17T12:41:15.021Z,17.93
2018-09-17T12:43:56.717Z,20.73
2018-09-17T12:46:29.070Z,15.33
2018-09-17T12:49:00.796Z,7.97
2018-09-17T12:51:29.206Z,13.13
2018-09-17T12:53:57.321Z,11.60
2018-09-17T12:56:30.575Z,6.17
2018-09-17T12:59:08.636Z,23.50
2018-09-17T13:01:36.730Z,31.57
2018-09-17T13:04:11.042Z,26.23
2018-09-17T13:06:43.170Z,26.10
2018-09-17T13:09:11.797Z,24.20
2018-09-17T13:11:42.689Z,18.23
2018-09-17T13:14:17.168Z,26.90
2018-09-17T13:16:59.244Z,23.83
2018-09-17T13:19:45.289Z,31.93
2018-09-17T13:22:13.292Z,23.87
2018-09-17T13:24:45.677Z,17.73
2018-09-17T13:27:20.695Z,18.30
2018-09-17T13:29:48.835Z,25.30
2018-09-17T13:32:24.328Z,15.67
2018-09-17T13:34:56.736Z,23.07
2018-09-17T13:37:31.933Z,19.83
2018-09-17T13:40:02.110Z,15.33
2018-09-17T13:42:32.299Z,16.57
2018-09-17T13:45:00.332Z,12.83
2018-09-17T13:47:36.657Z,9.87
2018-09-17T13:50:11.178Z,21.20
2018-09-17T13:52:42.203Z,15.80
2018-09-17T13:55:10.254Z,12.23
2018-09-17T13:57:41.149Z,22.30
2018-09-17T14:00:13.769Z,15.77
2018-09-17T14:02:41.881Z,16.00
2018-09-17T14:05:18.604Z,26.37
2018-09-17T14:07:46.702Z,21.47
2018-09-17T14:10:17.938Z,16.60
2018-09-17T14:12:48.046Z,8.53
2018-09-17T14:15:16.096Z,22.57
2018-09-17T14:17:50.992Z,10.30
2018-09-17T14:20:19.120Z,18.17
2018-09-17T14:22:52.553Z,25.93
2018-09-17T14:25:30.113Z,19.50
2018-09-17T14:28:03.912Z,24.30
2018-09-17T14:30:31.999Z,22.03
2018-09-17T14:33:11.001Z,27.00
2018-09-17T14:35:41.238Z,23.73
2018-09-17T14:38:09.311Z,19.17
2018-09-17T14:40:40.060Z,23.80
2018-09-17T14:43:10.271Z,22.03
2018-09-17T14:45:44.180Z,19.93
2018-09-17T14:48:12.309Z,27.27
2018-09-17T14:50:40.409Z,23.33
2018-09-17T14:53:14.270Z,22.77
2018-09-17T14:55:56.261Z,14.80
2018-09-17T14:58:29.237Z,24.83
2018-09-17T15:00:57.256Z,27.37
2018-09-17T15:03:29.036Z,13.83
2018-09-17T15:05:58.320Z,23.63
2018-09-17T15:08:29.679Z,30.73
2018-09-17T15:11:02.512Z,15.97
2018-09-17T15:13:33.590Z,24.60
2018-09-17T15:16:06.410Z,25.10
2018-09-17T15:18:35.438Z,13.93
2018-09-17T15:21:05.956Z,21.70
2018-09-17T15:23:45.932Z,25.07
2018-09-17T15:26:21.817Z,19.17
2018-09-17T15:28:51.955Z,24.37
2018-09-17T15:31:20.132Z,23.47
2018-09-17T15:33:55.493Z,29.47
2018-09-17T15:36:33.090Z,19.23
2018-09-17T15:39:01.222Z,22.37
2018-09-17T15:41:31.274Z,11.57
2018-09-17T15:43:59.473Z,22.20
2018-09-17T15:46:35.444Z,27.47
2018-09-17T15:49:06.851Z,20.33
2018-09-17T15:51:35.015Z,27.40
2018-09-17T15:54:10.337Z,20.53
2018-09-17T15:56:41.295Z,33.77
2018-09-17T15:59:09.533Z,18.53
2018-09-17T16:01:37.693Z,17.13
2018-09-17T16:04:13.026Z,18.13
2018-09-17T16:06:53.073Z,31.37
2018-09-17T16:09:25.658Z,25.17
2018-09-17T16:11:59.808Z,19.10
2018-09-17T16:14:27.945Z,30.03
2018-09-17T16:16:58.911Z,26.13
2018-09-17T16:19:27.017Z,25.57
2018-09-17T16:22:00.008Z,21.23
2018-09-17T16:24:28.191Z,25.40
2018-09-17T16:26:56.359Z,26.47
2018-09-17T16:29:27.233Z,25.83
2018-09-17T16:31:55.431Z,25.47
2018-09-17T16:34:29.875Z,17.70
2018-09-17T16:37:06.592Z,24.90
2018-09-17T16:39:34.705Z,19.67
2018-09-17T16:42:09.875Z,22.17
2018-09-17T16:44:39.951Z,24.30
2018-09-17T16:47:08.105Z,24.47
2018-09-17T16:49:42.405Z,20.87
2018-09-17T16:52:16.455Z,17.90
2018-09-17T16:54:44.513Z,21.73
2018-09-17T16:57:15.376Z,25.13
2018-09-17T16:59:43.559Z,29.37
2018-09-17T17:02:14.533Z,18.97
2018-09-17T17:04:42.857Z,22.83
2018-09-17T17:07:10.913Z,29.67
2018-09-17T17:09:42.170Z,68.00
2018-09-17T17:12:24.327Z,38.17
2018-09-17T17:14:52.713Z,28.60
2018-09-17T17:17:20.923Z,18.63
2018-09-17T17:19:55.545Z,39.03
2018-09-17T17:22:23.614Z,38.40
2018-09-17T17:24:57.625Z,33.33
2018-09-17T17:27:25.732Z,36.40
2018-09-17T17:29:56.837Z,50.20
2018-09-17T17:32:27.891Z,44.03
2018-09-17T17:34:58.493Z,67.70
2018-09-17T17:37:26.607Z,69.50
2018-09-17T17:39:59.160Z,80.43
2018-09-17T17:42:31.403Z,68.07
2018-09-17T17:45:04.609Z,96.63
2018-09-17T17:47:33.002Z,86.63
2018-09-17T17:50:01.078Z,98.83
2018-09-17T17:52:32.478Z,105.97
2018-09-17T17:55:03.637Z,113.17
2018-09-17T17:57:33.891Z,107.27
2018-09-17T18:00:06.044Z,121.47
2018-09-17T18:02:37.374Z,92.93
2018-09-17T18:05:11.722Z,91.73
2018-09-17T18:07:42.621Z,93.13
2018-09-17T18:10:10.757Z,88.50
2018-09-17T18:12:45.255Z,94.30
2018-09-17T18:15:16.318Z,99.10
2018-09-17T18:17:44.628Z,92.70
2018-09-17T18:20:12.736Z,86.63
2018-09-17T18:22:47.030Z,88.90
2018-09-17T18:25:20.628Z,100.57
2018-09-17T18:27:56.598Z,84.67
2018-09-17T18:30:24.882Z,80.63
2018-09-17T18:32:53.152Z,84.30
2018-09-17T18:35:29.943Z,78.80
2018-09-17T18:37:58.079Z,78.00
2018-09-17T18:40:29.260Z,76.43
2018-09-17T18:42:59.671Z,75.13
2018-09-17T18:45:30.934Z,56.00
2018-09-17T18:47:59.171Z,50.13
2018-09-17T18:50:35.463Z,53.50
2018-09-17T18:53:04.477Z,44.73
2018-09-17T18:55:34.463Z,54.17
2018-09-17T18:58:09.211Z,41.07
2018-09-17T19:00:37.260Z,45.07
2018-09-17T19:03:17.350Z,33.40
2018-09-17T19:05:47.484Z,29.30
2018-09-17T19:08:15.613Z,24.33
2018-09-17T19:10:51.072Z,23.23
2018-09-17T19:13:23.309Z,21.70
2018-09-17T19:15:56.899Z,15.67
2018-09-17T19:18:33.209Z,20.27
2018-09-17T19:21:06.529Z,20.07
2018-09-17T19:23:40.265Z,14.27
2018-09-17T19:26:11.050Z,13.30
2018-09-17T19:28:44.869Z,13.57
2018-09-17T19:31:23.123Z,11.63
2018-09-17T19:33:51.416Z,11.53
2018-09-17T19:36:19.604Z,10.60
2018-09-17T19:38:57.644Z,9.27
2018-09-17T19:41:26.431Z,7.40
2018-09-17T19:43:57.556Z,7.60
2018-09-17T19:46:25.715Z,7.17
2018-09-17T19:48:56.618Z,7.53
2018-09-17T19:51:32.073Z,7.30
2018-09-17T19:54:02.357Z,5.80
2018-09-17T19:56:30.897Z,5.80
2018-09-17T19:59:04.446Z,5.10
2018-09-17T20:01:33.186Z,5.53
2018-09-17T20:04:12.710Z,4.37
2018-09-17T20:06:47.909Z,4.37
2018-09-17T20:09:26.377Z,3.63
2018-09-17T20:11:54.910Z,3.77
2018-09-17T20:14:27.197Z,3.77
2018-09-17T20:17:07.128Z,3.80
2018-09-17T20:19:41.606Z,3.53
2018-09-17T20:22:10.504Z,3.40
2018-09-17T20:24:41.684Z,3.60
2018-09-17T20:27:09.907Z,3.70
2018-09-17T20:29:42.769Z,3.33
2018-09-17T20:32:10.994Z,3.43
2018-09-17T20:34:41.689Z,3.17
2018-09-17T20:37:10.425Z,3.40
2018-09-17T20:39:41.425Z,3.90
2018-09-17T20:42:12.272Z,3.87
2018-09-17T20:44:40.510Z,4.20
2018-09-17T20:47:08.610Z,3.50
2018-09-17T20:49:39.562Z,3.60
2018-09-17T20:52:07.612Z,3.63
2018-09-17T20:54:42.049Z,3.93
2018-09-17T20:57:14.211Z,3.10
2018-09-17T20:59:44.424Z,3.47
2018-09-17T21:02:12.616Z,3.47
2018-09-17T21:04:46.750Z,4.20
2018-09-17T21:07:26.654Z,4.20
2018-09-17T21:10:00.387Z,3.83
2018-09-17T21:12:28.480Z,3.73
2018-09-17T21:15:05.324Z,3.57
2018-09-17T21:17:33.538Z,3.77
2018-09-17T21:20:01.632Z,3.70
2018-09-17T21:22:34.175Z,3.60
2018-09-17T21:25:05.021Z,3.83
2018-09-17T21:27:33.043Z,3.83
2018-09-17T21:30:09.681Z,3.77
2018-09-17T21:32:44.034Z,3.40
2018-09-17T21:35:15.214Z,4.23
2018-09-17T21:37:51.614Z,4.00
2018-09-17T21:40:21.829Z,3.63
2018-09-17T21:42:49.942Z,3.87
2018-09-17T21:45:20.793Z,3.97
2018-09-17T21:47:48.861Z,3.90
2018-09-17T21:50:19.887Z,3.50
2018-09-17T21:52:47.984Z,3.43
2018-09-17T21:55:20.918Z,3.73
2018-09-17T21:57:49.210Z,3.63
2018-09-17T22:00:17.376Z,3.40
2018-09-17T22:02:51.869Z,3.87
2018-09-17T22:05:24.805Z,3.80
2018-09-17T22:07:52.978Z,3.40
2018-09-17T22:10:23.934Z,3.70
2018-09-17T22:12:53.921Z,4.13
2018-09-17T22:15:27.038Z,3.83
2018-09-17T22:18:08.936Z,3.47
2018-09-17T22:20:37.056Z,4.00
2018-09-17T22:23:18.982Z,3.67
2018-09-17T22:25:47.269Z,3.67
2018-09-17T22:28:15.340Z,3.70
2018-09-17T22:30:46.148Z,3.70
2018-09-17T22:33:17.034Z,3.70
2018-09-17T22:35:45.397Z,3.93
2018-09-17T22:38:15.934Z,4.00
2018-09-17T22:40:44.055Z,4.30
2018-09-17T22:43:16.409Z,3.87
2018-09-17T22:45:50.584Z,3.77
2018-09-17T22:48:25.973Z,4.07
2018-09-17T22:50:59.245Z,4.33
2018-09-17T22:53:27.453Z,4.37
2018-09-17T22:55:55.569Z,3.90
2018-09-17T22:58:27.931Z,4.80
2018-09-17T23:00:59.414Z,4.03
2018-09-17T23:03:31.573Z,4.20
2018-09-17T23:05:59.613Z,4.23
2018-09-17T23:08:35.060Z,4.63
2018-09-17T23:11:08.430Z,4.63
2018-09-17T23:13:42.916Z,4.57
2018-09-17T23:16:22.818Z,4.97
2018-09-17T23:18:50.983Z,4.67
2018-09-17T23:21:24.329Z,4.10
2018-09-17T23:23:57.464Z,4.73
2018-09-17T23:26:38.866Z,4.47
2018-09-17T23:29:12.053Z,4.30
2018-09-17T23:31:40.243Z,4.53
2018-09-17T23:34:11.054Z,4.17
2018-09-17T23:36:39.212Z,4.43
2018-09-17T23:39:14.543Z,4.20
2018-09-17T23:41:46.868Z,4.67
2018-09-17T23:44:16.805Z,4.50
2018-09-17T23:46:44.921Z,4.50
2018-09-17T23:49:15.898Z,4.47
2018-09-17T23:51:43.940Z,4.77
2018-09-17T23:54:19.242Z,4.40
2018-09-17T23:56:50.114Z,5.10
2018-09-17T23:59:18.186Z,4.27
